createdAt,value
2023-05-06T00:02:05.727Z,8.57
2023-05-06T00:04:32.715Z,5.80
2023-05-06T00:06:59.377Z,4.18
2023-05-06T00:09:25.890Z,5.20
2023-05-06T00:11:52.367Z,4.50
2023-05-06T00:14:19.052Z,5.70
2023-05-06T00:16:46.047Z,3.72
2023-05-06T00:19:12.580Z,3.75
2023-05-06T00:21:39.071Z,4.05
2023-05-06T00:24:05.921Z,5.57
2023-05-06T00:26:32.410Z,6.32
2023-05-06T00:28:58.808Z,4.63
2023-05-06T00:31:25.371Z,3.92
2023-05-06T00:33:51.804Z,4.63
2023-05-06T00:36:18.495Z,6.47
2023-05-06T00:38:44.931Z,7.15
2023-05-06T00:41:11.376Z,6.20
2023-05-06T00:43:38.454Z,4.60
2023-05-06T00:46:06.140Z,7.65
2023-05-06T00:48:32.588Z,4.93
2023-05-06T00:50:59.225Z,7.07
2023-05-06T00:53:25.926Z,7.63
2023-05-06T00:55:52.554Z,5.47
2023-05-06T00:58:20.314Z,5.45
2023-05-06T01:00:46.827Z,5.63
2023-05-06T01:03:13.359Z,6.40
2023-05-06T01:06:03.049Z,5.47
2023-05-06T01:08:34.957Z,6.25
2023-05-06T01:11:16.892Z,8.13
2023-05-06T01:13:52.433Z,8.38
2023-05-06T01:16:22.768Z,8.45
2023-05-06T01:18:51.663Z,8.15
2023-05-06T01:21:20.161Z,7.40
2023-05-06T01:23:58.407Z,10.75
2023-05-06T01:26:26.810Z,8.20
2023-05-06T01:28:54.063Z,7.93
2023-05-06T01:31:24.773Z,9.43
2023-05-06T01:34:05.284Z,9.55
2023-05-06T01:37:14.448Z,7.78
2023-05-06T01:39:42.368Z,9.63
2023-05-06T01:42:10.086Z,6.78
2023-05-06T01:44:37.439Z,10.32
2023-05-06T01:47:05.696Z,9.30
2023-05-06T01:49:32.718Z,9.82
2023-05-06T01:51:59.125Z,11.30
2023-05-06T01:54:25.476Z,6.82
2023-05-06T01:56:51.850Z,7.43
2023-05-06T01:59:18.330Z,6.55
2023-05-06T02:01:45.039Z,7.25
2023-05-06T02:04:11.589Z,6.10
2023-05-06T02:06:38.103Z,7.60
2023-05-06T02:09:04.513Z,5.90
2023-05-06T02:11:31.834Z,6.22
2023-05-06T02:13:58.327Z,5.15
2023-05-06T02:16:28.220Z,6.45
2023-05-06T02:18:55.099Z,6.70
2023-05-06T02:21:21.725Z,5.60
2023-05-06T02:23:48.166Z,5.65
2023-05-06T02:26:14.591Z,5.38
2023-05-06T02:28:41.075Z,7.15
2023-05-06T02:31:07.503Z,7.20
2023-05-06T02:33:33.966Z,7.45
2023-05-06T02:36:00.487Z,6.07
2023-05-06T02:38:26.858Z,6.57
2023-05-06T02:40:53.248Z,5.60
2023-05-06T02:43:19.700Z,6.10
2023-05-06T02:45:46.298Z,5.15
2023-05-06T02:48:12.778Z,8.10
2023-05-06T02:50:39.414Z,7.43
2023-05-06T02:53:05.909Z,7.72
2023-05-06T02:55:32.420Z,4.88
2023-05-06T02:57:58.921Z,6.43
2023-05-06T03:00:25.376Z,5.75
2023-05-06T03:02:51.837Z,5.43
2023-05-06T03:05:18.484Z,6.10
2023-05-06T03:07:45.036Z,5.45
2023-05-06T03:10:11.430Z,4.63
2023-05-06T03:12:37.943Z,5.40
2023-05-06T03:15:04.736Z,4.88
2023-05-06T03:17:31.204Z,5.80
2023-05-06T03:19:57.634Z,5.93
2023-05-06T03:22:24.061Z,6.10
2023-05-06T03:24:50.489Z,6.55
2023-05-06T03:27:16.902Z,5.20
2023-05-06T03:29:46.171Z,8.20
2023-05-06T03:32:12.562Z,6.35
2023-05-06T03:34:38.970Z,6.40
2023-05-06T03:37:05.408Z,6.93
2023-05-06T03:39:31.762Z,5.25
2023-05-06T03:41:58.589Z,7.15
2023-05-06T03:44:24.992Z,8.57
2023-05-06T03:46:51.411Z,6.45
2023-05-06T03:49:17.812Z,6.90
2023-05-06T03:51:44.268Z,6.68
2023-05-06T03:54:10.622Z,5.90
2023-05-06T03:56:37.065Z,5.30
2023-05-06T03:59:03.670Z,6.45
2023-05-06T04:01:30.094Z,4.60
2023-05-06T04:03:56.530Z,6.35
2023-05-06T04:06:23.035Z,9.02
2023-05-06T04:08:49.446Z,5.20
2023-05-06T04:11:15.862Z,5.32
2023-05-06T04:13:42.316Z,5.20
2023-05-06T04:16:09.758Z,5.88
2023-05-06T04:18:36.366Z,4.90
2023-05-06T04:21:02.874Z,6.10
2023-05-06T04:23:29.229Z,4.50
2023-05-06T04:25:55.616Z,6.63
2023-05-06T04:28:22.041Z,6.63
2023-05-06T04:30:48.463Z,6.28
2023-05-06T04:33:14.899Z,4.82
2023-05-06T04:35:49.575Z,6.88
2023-05-06T04:38:16.185Z,7.95
2023-05-06T04:40:42.574Z,7.40
2023-05-06T04:43:10.361Z,8.70
2023-05-06T04:45:37.906Z,9.60
2023-05-06T04:48:04.668Z,5.50
2023-05-06T04:50:32.198Z,6.78
2023-05-06T04:52:58.584Z,7.32
2023-05-06T04:55:25.009Z,6.93
2023-05-06T04:57:51.399Z,5.72
2023-05-06T05:00:19.569Z,5.57
2023-05-06T05:02:46.818Z,10.88
2023-05-06T05:05:15.035Z,10.50
2023-05-06T05:07:41.492Z,7.88
2023-05-06T05:10:09.302Z,9.00
2023-05-06T05:12:36.225Z,11.73
2023-05-06T05:15:03.177Z,8.57
2023-05-06T05:17:30.063Z,15.65
2023-05-06T05:19:56.498Z,10.85
2023-05-06T05:22:23.019Z,18.38
2023-05-06T05:24:49.381Z,18.52
2023-05-06T05:27:16.021Z,8.73
2023-05-06T05:29:42.500Z,11.93
2023-05-06T05:32:08.930Z,19.58
2023-05-06T05:34:35.436Z,16.02
2023-05-06T05:37:01.878Z,11.45
2023-05-06T05:39:28.243Z,11.50
2023-05-06T05:41:54.666Z,12.20
2023-05-06T05:44:21.074Z,13.45
2023-05-06T05:46:47.561Z,11.38
2023-05-06T05:49:13.981Z,11.82
2023-05-06T05:51:40.330Z,13.18
2023-05-06T05:54:06.745Z,16.75
2023-05-06T05:56:33.494Z,14.80
2023-05-06T05:59:00.803Z,16.52
2023-05-06T06:01:27.430Z,14.95
2023-05-06T06:03:54.986Z,11.80
2023-05-06T06:06:21.628Z,15.55
2023-05-06T06:08:48.110Z,15.23
2023-05-06T06:11:14.515Z,15.35
2023-05-06T06:13:41.051Z,14.73
2023-05-06T06:16:07.901Z,13.38
2023-05-06T06:18:34.427Z,14.15
2023-05-06T06:21:01.001Z,13.23
2023-05-06T06:23:27.418Z,15.27
2023-05-06T06:25:53.778Z,15.32
2023-05-06T06:28:21.255Z,16.77
2023-05-06T06:30:47.653Z,14.82
2023-05-06T06:33:14.028Z,12.25
2023-05-06T06:35:40.410Z,14.40
2023-05-06T06:38:06.971Z,16.63
2023-05-06T06:40:33.534Z,15.55
2023-05-06T06:43:01.079Z,14.70
2023-05-06T06:45:27.731Z,15.02
2023-05-06T06:47:54.223Z,17.65
2023-05-06T06:50:20.884Z,14.88
2023-05-06T06:52:47.350Z,15.30
2023-05-06T06:55:13.837Z,16.02
2023-05-06T06:57:40.845Z,15.07
2023-05-06T07:00:07.852Z,16.70
2023-05-06T07:02:34.747Z,16.77
2023-05-06T07:05:01.385Z,16.90
2023-05-06T07:07:27.720Z,17.27
2023-05-06T07:09:54.087Z,15.90
2023-05-06T07:12:20.537Z,16.48
2023-05-06T07:14:46.911Z,14.57
2023-05-06T07:17:13.419Z,16.52
2023-05-06T07:19:39.868Z,16.65
2023-05-06T07:22:06.287Z,16.65
2023-05-06T07:24:32.792Z,14.45
2023-05-06T07:27:01.320Z,15.85
2023-05-06T07:29:28.167Z,16.90
2023-05-06T07:31:56.621Z,15.15
2023-05-06T07:34:23.026Z,18.85
2023-05-06T07:36:50.536Z,14.82
2023-05-06T07:39:17.001Z,15.07
2023-05-06T07:41:43.583Z,17.05
2023-05-06T07:44:10.053Z,17.92
2023-05-06T07:46:36.627Z,17.02
2023-05-06T07:49:03.298Z,17.50
2023-05-06T07:51:29.821Z,15.65
2023-05-06T07:53:56.201Z,18.75
2023-05-06T07:56:23.689Z,16.27
2023-05-06T07:58:50.178Z,18.67
2023-05-06T08:01:16.784Z,16.38
2023-05-06T08:03:44.078Z,20.52
2023-05-06T08:06:11.794Z,18.83
2023-05-06T08:08:40.220Z,18.73
2023-05-06T08:11:06.554Z,22.17
2023-05-06T08:13:33.568Z,19.40
2023-05-06T08:16:02.438Z,21.23
2023-05-06T08:18:29.148Z,19.60
2023-05-06T08:20:55.684Z,19.08
2023-05-06T08:23:22.158Z,20.75
2023-05-06T08:25:48.639Z,20.23
2023-05-06T08:28:15.125Z,20.25
2023-05-06T08:30:41.639Z,18.98
2023-05-06T08:33:08.032Z,18.15
2023-05-06T08:35:34.410Z,16.85
2023-05-06T08:38:00.783Z,20.20
2023-05-06T08:40:29.389Z,19.85
2023-05-06T08:42:57.568Z,20.08
2023-05-06T08:45:24.107Z,20.50
2023-05-06T08:47:50.770Z,18.40
2023-05-06T08:50:17.315Z,18.98
2023-05-06T08:52:43.890Z,19.17
2023-05-06T08:55:11.263Z,18.67
2023-05-06T08:57:38.566Z,16.83
2023-05-06T09:00:05.767Z,19.50
2023-05-06T09:02:32.251Z,18.88
2023-05-06T09:04:59.735Z,20.17
2023-05-06T09:07:26.268Z,17.27
2023-05-06T09:09:52.686Z,16.02
2023-05-06T09:12:19.199Z,20.10
2023-05-06T09:14:50.120Z,16.17
2023-05-06T09:17:24.576Z,17.40
2023-05-06T09:22:21.493Z,22.67
2023-05-06T09:24:56.508Z,17.20
2023-05-06T09:27:36.632Z,18.33
2023-05-06T09:30:06.229Z,17.70
2023-05-06T09:32:33.689Z,17.33
2023-05-06T09:35:00.708Z,15.07
2023-05-06T09:37:28.059Z,14.65
2023-05-06T09:40:03.488Z,15.38
2023-05-06T09:42:30.802Z,19.27
2023-05-06T09:45:01.921Z,16.05
2023-05-06T09:47:34.159Z,15.73
2023-05-06T09:50:01.908Z,17.77
2023-05-06T09:52:29.466Z,19.65
2023-05-06T09:54:56.730Z,17.77
2023-05-06T09:57:23.671Z,15.13
2023-05-06T09:59:54.456Z,15.25
2023-05-06T10:02:22.999Z,18.70
2023-05-06T10:04:50.234Z,17.55
2023-05-06T10:07:23.464Z,17.17
2023-05-06T10:09:51.455Z,20.48
2023-05-06T10:12:19.866Z,15.75
2023-05-06T10:14:47.200Z,16.75
2023-05-06T10:17:14.401Z,18.48
2023-05-06T10:19:44.863Z,17.67
2023-05-06T10:22:51.936Z,16.15
2023-05-06T10:25:38.935Z,15.98
2023-05-06T10:28:09.958Z,16.38
2023-05-06T10:30:43.123Z,18.60
2023-05-06T10:33:11.299Z,17.58
2023-05-06T10:35:41.082Z,15.45
2023-05-06T10:38:17.674Z,16.40
2023-05-06T10:40:44.568Z,15.38
2023-05-06T10:43:25.707Z,16.35
2023-05-06T10:46:02.575Z,15.82
2023-05-06T10:48:30.882Z,15.45
2023-05-06T10:51:22.304Z,14.93
2023-05-06T10:53:56.281Z,14.90
2023-05-06T10:56:22.777Z,11.93
2023-05-06T10:58:49.319Z,11.15
2023-05-06T11:01:15.833Z,12.25
2023-05-06T11:03:46.033Z,12.02
2023-05-06T11:06:12.730Z,12.43
2023-05-06T11:08:39.284Z,11.10
2023-05-06T11:11:43.032Z,10.05
2023-05-06T11:14:13.372Z,8.57
2023-05-06T11:16:53.331Z,9.07
2023-05-06T11:19:28.289Z,9.30
2023-05-06T11:21:57.430Z,6.88
2023-05-06T11:24:26.198Z,7.75
2023-05-06T11:26:53.706Z,6.35
2023-05-06T11:29:20.747Z,9.52
2023-05-06T11:31:47.451Z,9.98
2023-05-06T11:34:21.057Z,8.77
2023-05-06T11:37:05.912Z,10.50
2023-05-06T11:39:40.540Z,9.88
2023-05-06T11:42:08.711Z,10.48
2023-05-06T11:44:37.704Z,11.13
2023-05-06T11:47:06.565Z,11.90
2023-05-06T11:49:41.435Z,11.60
2023-05-06T11:52:12.052Z,12.75
2023-05-06T11:54:40.282Z,11.90
2023-05-06T11:57:07.618Z,11.88
2023-05-06T11:59:37.409Z,8.38
2023-05-06T12:02:05.903Z,11.52
2023-05-06T12:07:16.287Z,9.38
2023-05-06T12:09:46.561Z,9.27
2023-05-06T12:12:20.103Z,9.55
2023-05-06T12:14:47.468Z,10.05
2023-05-06T12:17:14.836Z,9.23
2023-05-06T12:19:41.531Z,9.88
2023-05-06T12:22:19.325Z,9.13
2023-05-06T12:24:47.137Z,6.53
2023-05-06T12:27:14.336Z,10.90
2023-05-06T12:29:52.994Z,11.02
2023-05-06T12:32:19.556Z,10.85
2023-05-06T12:34:46.223Z,10.15
2023-05-06T12:37:24.633Z,8.35
2023-05-06T12:39:51.127Z,9.80
2023-05-06T12:42:22.031Z,10.15
2023-05-06T12:44:49.074Z,9.68
2023-05-06T12:47:36.101Z,10.88
2023-05-06T12:50:48.753Z,10.07
2023-05-06T12:53:31.319Z,10.32
2023-05-06T12:55:58.130Z,9.18
2023-05-06T12:58:24.775Z,10.77
2023-05-06T13:00:51.367Z,9.48
2023-05-06T13:03:19.473Z,10.95
2023-05-06T13:05:54.002Z,11.23
2023-05-06T13:08:20.888Z,13.25
2023-05-06T13:10:47.570Z,12.60
2023-05-06T13:13:14.326Z,11.68
2023-05-06T13:15:41.252Z,10.70
2023-05-06T13:18:08.728Z,11.50
2023-05-06T13:20:35.174Z,12.40
2023-05-06T13:23:01.765Z,11.45
2023-05-06T13:25:30.406Z,12.45
2023-05-06T13:27:56.994Z,12.77
2023-05-06T13:30:23.662Z,10.82
2023-05-06T13:32:50.183Z,9.90
2023-05-06T13:35:18.187Z,11.32
2023-05-06T13:37:45.235Z,10.38
2023-05-06T13:40:12.452Z,12.23
2023-05-06T13:42:39.307Z,9.82
2023-05-06T13:45:06.429Z,11.27
2023-05-06T13:47:33.094Z,10.25
2023-05-06T13:49:59.534Z,10.20
2023-05-06T13:52:26.282Z,10.02
2023-05-06T13:54:52.683Z,8.82
2023-05-06T13:57:19.449Z,9.60
2023-05-06T13:59:46.755Z,9.50
2023-05-06T14:02:13.461Z,7.43
2023-05-06T14:04:40.181Z,6.85
2023-05-06T14:07:06.719Z,5.15
2023-05-06T14:09:33.184Z,5.15
2023-05-06T14:11:59.661Z,10.48
2023-05-06T14:14:27.430Z,8.73
2023-05-06T14:16:54.726Z,5.20
2023-05-06T14:19:21.230Z,5.75
2023-05-06T14:21:47.726Z,6.28
2023-05-06T14:24:14.179Z,5.95
2023-05-06T14:26:41.394Z,8.27
2023-05-06T14:29:07.964Z,11.60
2023-05-06T14:31:34.596Z,4.65
2023-05-06T14:34:02.276Z,16.88
2023-05-06T14:36:28.755Z,6.32
2023-05-06T14:38:55.503Z,7.18
2023-05-06T14:41:25.116Z,4.13
2023-05-06T14:44:02.511Z,4.22
2023-05-06T14:46:29.739Z,5.82
2023-05-06T14:48:56.679Z,5.90
2023-05-06T14:51:30.485Z,4.68
2023-05-06T14:53:57.528Z,4.30
2023-05-06T14:56:31.229Z,69.35
2023-05-06T14:58:57.773Z,60.65
2023-05-06T15:01:30.597Z,10.82
2023-05-06T15:03:57.211Z,5.30
2023-05-06T15:06:23.700Z,8.30
2023-05-06T15:08:50.981Z,40.78
2023-05-06T15:11:17.468Z,6.22
2023-05-06T15:13:46.545Z,5.78
2023-05-06T15:16:13.156Z,26.25
2023-05-06T15:18:41.676Z,35.17
2023-05-06T15:21:08.286Z,31.70
2023-05-06T15:23:34.742Z,17.60
2023-05-06T15:26:01.417Z,13.50
2023-05-06T15:28:27.854Z,22.17
2023-05-06T15:30:54.265Z,10.88
2023-05-06T15:33:23.554Z,7.85
2023-05-06T15:35:50.337Z,13.55
2023-05-06T15:38:16.747Z,4.55
2023-05-06T15:40:50.508Z,26.10
2023-05-06T15:43:22.921Z,9.07
2023-05-06T15:45:50.514Z,12.95
2023-05-06T15:48:17.061Z,9.90
2023-05-06T15:50:43.494Z,7.38
2023-05-06T15:53:10.085Z,5.85
2023-05-06T15:55:45.181Z,5.85
2023-05-06T15:58:16.579Z,16.35
2023-05-06T16:00:43.187Z,12.95
2023-05-06T16:03:11.969Z,10.75
2023-05-06T16:05:39.590Z,15.63
2023-05-06T16:08:06.228Z,9.05
2023-05-06T16:10:32.729Z,6.18
2023-05-06T16:12:59.448Z,9.30
2023-05-06T16:15:26.041Z,5.65
2023-05-06T16:17:52.725Z,15.35
2023-05-06T16:20:19.292Z,19.60
2023-05-06T16:22:52.881Z,5.82
2023-05-06T16:25:19.744Z,6.95
2023-05-06T16:27:46.485Z,4.75
2023-05-06T16:30:13.308Z,8.13
2023-05-06T16:32:39.749Z,4.32
2023-05-06T16:35:06.798Z,5.57
2023-05-06T16:37:33.525Z,4.45
2023-05-06T16:40:00.207Z,4.65
2023-05-06T16:42:26.996Z,9.63
2023-05-06T16:44:53.476Z,3.65
2023-05-06T16:47:23.284Z,4.22
2023-05-06T16:49:50.546Z,3.10
2023-05-06T16:52:17.847Z,3.80
2023-05-06T16:54:44.714Z,4.35
2023-05-06T16:57:11.781Z,4.57
2023-05-06T16:59:38.347Z,3.05
2023-05-06T17:02:04.822Z,3.25
2023-05-06T17:04:31.395Z,4.25
2023-05-06T17:06:57.911Z,3.65
2023-05-06T17:09:24.376Z,4.38
2023-05-06T17:11:50.913Z,3.97
2023-05-06T17:14:17.675Z,4.63
2023-05-06T17:16:45.199Z,4.32
2023-05-06T17:19:12.137Z,3.60
2023-05-06T17:21:38.740Z,3.92
2023-05-06T17:24:06.405Z,2.85
2023-05-06T17:26:34.138Z,2.53
2023-05-06T17:29:01.163Z,4.65
2023-05-06T17:31:27.670Z,5.53
2023-05-06T17:33:54.120Z,2.75
2023-05-06T17:36:21.881Z,3.90
2023-05-06T17:38:48.579Z,3.78
2023-05-06T17:41:15.906Z,3.08
2023-05-06T17:43:43.397Z,3.50
2023-05-06T17:46:10.103Z,3.15
2023-05-06T17:48:36.605Z,4.47
2023-05-06T17:51:03.514Z,4.97
2023-05-06T17:53:32.257Z,2.78
2023-05-06T17:55:59.099Z,4.45
2023-05-06T17:58:25.728Z,4.35
2023-05-06T18:00:52.167Z,3.53
2023-05-06T18:03:18.761Z,4.15
2023-05-06T18:05:45.984Z,4.35
2023-05-06T18:08:12.676Z,5.00
2023-05-06T18:10:41.155Z,4.95
2023-05-06T18:15:34.246Z,4.88
2023-05-06T18:18:00.872Z,5.70
2023-05-06T18:20:27.679Z,5.80
2023-05-06T18:22:54.236Z,5.45
2023-05-06T18:25:20.951Z,5.68
2023-05-06T18:27:48.072Z,5.88
2023-05-06T18:30:16.309Z,5.30
2023-05-06T18:32:42.791Z,6.78
2023-05-06T18:35:11.293Z,8.40
2023-05-06T18:37:40.772Z,5.20
2023-05-06T18:40:09.117Z,5.25
2023-05-06T18:42:35.870Z,5.32
2023-05-06T18:45:04.547Z,6.65
2023-05-06T18:47:32.128Z,7.57
2023-05-06T18:50:00.575Z,7.82
2023-05-06T18:52:27.367Z,8.80
2023-05-06T18:54:53.799Z,7.35
2023-05-06T18:57:20.948Z,7.00
2023-05-06T18:59:47.534Z,7.03
2023-05-06T19:02:14.084Z,6.65
2023-05-06T19:04:40.628Z,7.18
2023-05-06T19:07:07.132Z,8.85
2023-05-06T19:09:36.814Z,9.32
2023-05-06T19:12:06.469Z,9.00
2023-05-06T19:14:34.547Z,9.60
2023-05-06T19:17:02.910Z,10.55
2023-05-06T19:19:29.496Z,10.38
2023-05-06T19:21:57.352Z,10.93
2023-05-06T19:24:23.734Z,8.00
2023-05-06T19:26:50.982Z,10.35
2023-05-06T19:29:17.445Z,8.43
2023-05-06T19:31:43.873Z,8.07
2023-05-06T19:34:10.248Z,10.93
2023-05-06T19:36:36.703Z,9.25
2023-05-06T19:39:03.327Z,8.30
2023-05-06T19:41:29.872Z,11.13
2023-05-06T19:43:56.542Z,9.85
2023-05-06T19:46:23.075Z,8.40
2023-05-06T19:48:49.508Z,8.80
2023-05-06T19:51:16.481Z,8.35
2023-05-06T19:53:42.965Z,7.93
2023-05-06T19:56:12.696Z,7.65
2023-05-06T19:58:40.507Z,9.52
2023-05-06T20:01:07.125Z,7.57
2023-05-06T20:03:33.777Z,9.30
2023-05-06T20:06:00.358Z,8.43
2023-05-06T20:08:27.114Z,8.98
2023-05-06T20:10:53.561Z,10.73
2023-05-06T20:13:20.469Z,11.93
2023-05-06T20:15:47.542Z,11.52
2023-05-06T20:18:14.610Z,14.18
2023-05-06T20:20:41.364Z,10.23
2023-05-06T20:23:07.871Z,13.50
2023-05-06T20:25:36.119Z,15.13
2023-05-06T20:28:04.441Z,12.27
2023-05-06T20:30:31.100Z,13.68
2023-05-06T20:32:57.751Z,11.45
2023-05-06T20:35:24.468Z,10.00
2023-05-06T20:37:50.929Z,14.65
2023-05-06T20:40:17.455Z,13.88
2023-05-06T20:42:43.924Z,12.10
2023-05-06T20:45:10.663Z,12.00
2023-05-06T20:47:37.622Z,13.93
2023-05-06T20:50:04.529Z,14.65
2023-05-06T20:52:31.154Z,16.00
2023-05-06T20:54:58.144Z,12.40
2023-05-06T20:57:24.838Z,11.63
2023-05-06T20:59:52.332Z,15.60
2023-05-06T21:02:18.814Z,12.68
2023-05-06T21:04:45.293Z,13.85
2023-05-06T21:07:11.872Z,16.27
2023-05-06T21:09:38.305Z,13.48
2023-05-06T21:12:05.004Z,18.58
2023-05-06T21:14:31.513Z,15.90
2023-05-06T21:16:58.030Z,13.25
2023-05-06T21:19:24.463Z,14.70
2023-05-06T21:21:51.344Z,12.10
2023-05-06T21:24:17.880Z,12.35
2023-05-06T21:26:44.460Z,11.65
2023-05-06T21:29:10.866Z,12.27
2023-05-06T21:31:37.531Z,14.52
2023-05-06T21:34:07.272Z,12.23
2023-05-06T21:36:36.108Z,11.20
2023-05-06T21:41:35.606Z,13.27
2023-05-06T21:44:09.353Z,11.88
2023-05-06T21:46:37.901Z,11.68
2023-05-06T21:49:04.735Z,11.05
2023-05-06T21:51:33.408Z,11.55
2023-05-06T21:53:59.890Z,10.93
2023-05-06T21:56:26.877Z,11.75
2023-05-06T21:58:55.716Z,12.45
2023-05-06T22:01:23.141Z,12.40
2023-05-06T22:03:49.676Z,11.98
2023-05-06T22:06:16.422Z,11.95
2023-05-06T22:08:42.874Z,11.90
2023-05-06T22:11:09.408Z,10.38
2023-05-06T22:13:36.131Z,11.77
2023-05-06T22:16:02.699Z,10.40
2023-05-06T22:18:30.124Z,11.23
2023-05-06T22:20:57.852Z,11.05
2023-05-06T22:23:24.902Z,12.05
2023-05-06T22:25:54.229Z,11.75
2023-05-06T22:28:20.689Z,12.38
2023-05-06T22:30:47.125Z,9.82
2023-05-06T22:33:13.588Z,10.07
2023-05-06T22:35:40.106Z,9.48
2023-05-06T22:38:06.700Z,8.60
2023-05-06T22:40:33.127Z,10.40
2023-05-06T22:42:59.618Z,11.23
2023-05-06T22:45:26.189Z,8.75
2023-05-06T22:47:52.650Z,8.40
2023-05-06T22:50:19.144Z,9.20
2023-05-06T22:52:45.666Z,12.70
2023-05-06T22:55:12.403Z,8.90
2023-05-06T22:57:39.206Z,9.50
2023-05-06T23:00:07.455Z,10.70
2023-05-06T23:02:34.032Z,8.80
2023-05-06T23:05:00.591Z,10.05
2023-05-06T23:07:27.225Z,9.85
2023-05-06T23:09:53.629Z,10.10
2023-05-06T23:12:20.224Z,9.63
2023-05-06T23:14:46.727Z,10.52
2023-05-06T23:17:13.423Z,9.00
2023-05-06T23:19:39.982Z,9.65
2023-05-06T23:22:06.364Z,8.50
2023-05-06T23:24:32.792Z,9.93
2023-05-06T23:26:59.354Z,8.77
2023-05-06T23:29:25.765Z,8.70
2023-05-06T23:31:52.297Z,7.65
2023-05-06T23:34:18.703Z,9.00
2023-05-06T23:36:45.308Z,7.57
2023-05-06T23:39:12.261Z,8.75
2023-05-06T23:41:38.825Z,7.95
2023-05-06T23:44:06.120Z,7.47
2023-05-06T23:46:32.925Z,6.07
2023-05-06T23:48:59.670Z,7.93
2023-05-06T23:51:26.565Z,8.27
2023-05-06T23:53:53.131Z,8.00
2023-05-06T23:56:21.629Z,8.25
2023-05-06T23:58:48.124Z,8.60
